Time;durP1;ratioP1;P1;durP2;ratioP2;P2;SDS_P1;SDS_P2;PMS_P1;PMS_P2;Temp;Humidity;BMP_temperature;BMP_pressure;BME280_temperature;BME280_humidity;BME280_pressure;Samples;Min_cycle;Max_cycle;Signal;HPM_P1;HPM_P2
2022/04/29 00:00:53;;;;;;;;;19.00;18.00;;;;;9.94;79.67;100482.16;6311027;20;2826466;-59
2022/04/29 00:03:24;;;;;;;;;18.33;16.33;;;;;9.82;81.42;100486.25;6286620;20;3541929;-59
2022/04/29 00:05:53;;;;;;;;;15.00;15.00;;;;;10.30;76.28;100479.59;6317926;20;2807597;-59
2022/04/29 00:08:21;;;;;;;;;20.00;17.00;;;;;10.25;76.97;100489.66;6282413;20;2496145;-60
2022/04/29 00:10:49;;;;;;;;;17.00;14.00;;;;;10.23;77.62;100487.03;6284966;20;2804796;-59
2022/04/29 00:13:18;;;;;;;;;15.67;15.00;;;;;10.55;74.19;100487.31;6284469;20;3539871;-59
2022/04/29 00:15:46;;;;;;;;;17.00;16.33;;;;;10.44;75.07;100481.59;6315458;20;3538798;-59
2022/04/29 00:18:15;;;;;;;;;18.67;16.33;;;;;10.19;77.64;100488.13;6311667;20;3560639;-59
2022/04/29 00:20:44;;;;;;;;;17.00;17.00;;;;;9.91;79.35;100484.97;6283249;20;3542970;-59
2022/04/29 00:23:13;;;;;;;;;14.00;12.00;;;;;9.78;80.37;100482.84;6312015;20;2792096;-59
2022/04/29 00:25:41;;;;;;;;;16.33;15.67;;;;;10.24;76.13;100480.72;6311312;20;3552469;-59
2022/04/29 00:28:10;;;;;;;;;16.00;15.00;;;;;9.87;78.23;100476.19;6281303;20;3551409;-59
2022/04/29 00:30:39;;;;;;;;;15.67;15.67;;;;;9.57;80.19;100486.50;6311165;20;3544102;-59
2022/04/29 00:33:07;;;;;;;;;19.50;17.00;;;;;9.51;80.77;100481.44;6283791;20;2829574;-59
2022/04/29 00:35:35;;;;;;;;;24.00;19.00;;;;;9.60;80.00;100481.88;6283273;20;2498187;-59
2022/04/29 00:38:04;;;;;;;;;22.00;21.33;;;;;9.41;81.36;100480.94;6282286;20;3567015;-59
2022/04/29 00:40:33;;;;;;;;;25.00;22.00;;;;;9.17;82.05;100480.22;6280925;20;2841964;-59
2022/04/29 00:43:01;;;;;;;;;25.00;24.00;;;;;9.19;83.10;100481.03;6282248;20;2500302;-59
2022/04/29 00:45:29;;;;;;;;;26.50;22.50;;;;;9.17;83.36;100473.03;6281414;20;2842947;-59
2022/04/29 00:47:57;;;;;;;;;20.00;18.50;;;;;9.00;84.33;100473.78;6283218;20;2821170;-59
2022/04/29 00:50:29;;;;;;;;;25.50;23.00;;;;;9.29;83.12;100476.13;6279212;20;2854469;-59
2022/04/29 00:52:59;;;;;;;;;24.00;20.50;;;;;9.26;82.66;100477.13;6281930;20;2838794;-59
2022/04/29 00:55:30;;;;;;;;;25.50;20.00;;;;;9.13;83.39;100470.56;6279510;20;2500262;-59
2022/04/29 00:58:11;;;;;;;;;27.00;23.50;;;;;9.23;81.31;100477.25;6282260;20;2842948;-60
2022/04/29 01:00:40;;;;;;;;;24.50;20.50;;;;;9.25;81.24;100478.06;6277793;20;2831524;-59
2022/04/29 01:03:13;;;;;;;;;16.33;13.00;;;;;9.02;83.46;100477.22;6282628;20;3530454;-59
2022/04/29 01:05:42;;;;;;;;;16.50;16.50;;;;;8.99;83.40;100473.81;6282939;20;2827360;-59
2022/04/29 01:08:11;;;;;;;;;22.00;22.00;;;;;9.12;82.70;100480.41;6278085;20;2498233;-59
2022/04/29 01:10:39;;;;;;;;;17.00;17.00;;;;;9.02;83.17;100477.22;6278079;20;2500312;-59
2022/04/29 01:13:07;;;;;;;;;20.00;20.00;;;;;9.05;83.39;100478.03;6276524;20;2500805;-59
2022/04/29 01:15:35;;;;;;;;;21.50;18.50;;;;;8.91;83.37;100476.81;6280872;20;2496112;-53
2022/04/29 01:18:11;;;;;;;;;22.50;19.00;;;;;8.86;83.57;100472.59;6283873;20;2839925;-49
2022/04/29 01:20:39;;;;;;;;;18.50;16.00;;;;;9.14;81.97;100472.31;6279767;20;2813794;-50
2022/04/29 01:23:12;;;;;;;;;19.67;18.00;;;;;9.19;80.75;100475.66;6281498;20;3555433;-49
2022/04/29 01:25:41;;;;;;;;;14.00;14.00;;;;;9.28;79.04;100472.56;6312060;20;2807531;-50
2022/04/29 01:28:10;;;;;;;;;17.00;17.00;;;;;9.55;77.00;100472.28;6280605;20;3543113;-51
2022/04/29 01:30:41;;;;;;;;;18.50;17.00;;;;;9.30;78.21;100468.03;6310554;20;2827333;-52
2022/04/29 01:33:12;;;;;;;;;15.00;15.00;;;;;9.71;75.38;100473.34;6278885;20;3534631;-53
2022/04/29 01:35:40;;;;;;;;;16.00;13.50;;;;;9.78;76.04;100464.06;6311388;20;2810760;-54
2022/04/29 01:38:09;;;;;;;;;14.33;14.33;;;;;9.82;74.97;100460.31;6281720;20;3550223;-53
2022/04/29 01:40:37;;;;;;;;;13.00;11.50;;;;;9.84;74.41;100458.41;6312199;20;2810684;-53
2022/04/29 01:43:05;;;;;;;;;17.00;14.00;;;;;9.81;74.31;100453.19;6280817;20;2814935;-53
2022/04/29 01:45:34;;;;;;;;;15.33;15.33;;;;;9.28;77.50;100456.50;6308000;20;3543102;-51
2022/04/29 01:48:02;;;;;;;;;16.00;14.00;;;;;8.98;79.04;100456.88;6310938;20;2811805;-52
2022/04/29 01:50:30;;;;;;;;;14.67;14.67;;;;;9.07;78.86;100452.94;6275892;20;3536674;-54
2022/04/29 01:52:59;;;;;;;;;16.00;14.33;;;;;8.99;79.84;100455.94;6275706;20;3532614;-52
2022/04/29 01:55:27;;;;;;;;;19.50;16.00;;;;;9.21;77.68;100452.34;6309348;20;2824194;-52
2022/04/29 01:57:59;;;;;;;;;14.33;14.33;;;;;9.18;77.84;100455.16;6279773;20;2809739;-49
2022/04/29 02:00:28;;;;;;;;;16.33;16.00;;;;;9.19;77.63;100454.22;6307139;20;3560794;-53
2022/04/29 02:02:56;;;;;;;;;17.00;16.33;;;;;9.16;78.44;100460.59;6280932;20;3553348;-53
2022/04/29 02:05:25;;;;;;;;;16.00;14.00;;;;;9.14;77.95;100456.25;6313958;20;2819531;-48
2022/04/29 02:07:53;;;;;;;;;15.50;14.50;;;;;9.22;78.10;100454.97;6283043;20;2806588;-53
2022/04/29 02:10:21;;;;;;;;;17.00;15.00;;;;;9.54;76.31;100455.34;6281795;20;2807536;-52
2022/04/29 02:12:50;;;;;;;;;17.33;16.00;;;;;9.44;76.36;100454.88;6282087;20;3552308;-51
2022/04/29 02:15:19;;;;;;;;;14.50;12.00;;;;;9.21;77.68;100452.34;6313849;20;2811703;-51
2022/04/29 02:17:49;;;;;;;;;14.33;14.33;;;;;8.82;79.92;100455.81;6280695;20;3528398;-53
2022/04/29 02:20:18;;;;;;;;;17.00;15.67;;;;;8.82;80.42;100449.56;6278709;20;3542949;-51
2022/04/29 02:22:47;;;;;;;;;17.33;14.00;;;;;8.67;80.75;100446.59;6309040;20;3548203;-52
2022/04/29 02:25:16;;;;;;;;;19.00;16.00;;;;;8.60;81.17;100446.91;6286004;20;3552332;-53
2022/04/29 02:27:43;;;;;;;;;20.50;17.00;;;;;8.31;82.50;100455.13;6279170;20;2821086;-48
2022/04/29 02:30:13;;;;;;;;;21.67;18.00;;;;;8.44;81.69;100444.84;6280022;20;3561721;-52
2022/04/29 02:32:41;;;;;;;;;23.00;19.00;;;;;8.51;81.83;100446.34;6272689;20;2493989;-52
2022/04/29 02:35:10;;;;;;;;;24.50;20.00;;;;;8.26;82.95;100445.56;6276811;20;2494011;-51
2022/04/29 02:37:37;;;;;;;;;27.00;23.00;;;;;8.39;82.93;100452.19;6276140;20;2483640;-49
2022/04/29 02:40:06;;;;;;;;;19.50;16.00;;;;;8.79;80.56;100445.19;6272806;20;2500331;-50
2022/04/29 02:42:34;;;;;;;;;18.50;18.50;;;;;8.77;80.02;100449.78;6281539;20;2825473;-50
2022/04/29 02:45:03;;;;;;;;;21.00;19.50;;;;;8.30;82.87;100447.19;6279685;20;2491955;-50
2022/04/29 02:47:31;;;;;;;;;25.33;17.00;;;;;8.36;82.46;100447.81;6278959;20;3572098;-50
2022/04/29 02:49:59;;;;;;;;;22.00;18.00;;;;;8.91;78.68;100447.38;6286177;20;2823176;-52
2022/04/29 02:52:28;;;;;;;;;22.00;19.67;;;;;8.72;78.79;100454.44;6285395;20;3569070;-48
2022/04/29 02:54:56;;;;;;;;;21.50;20.50;;;;;8.54;80.12;100453.38;6285241;20;2491996;-49
2022/04/29 02:57:23;;;;;;;;;17.00;14.50;;;;;8.74;78.96;100457.91;6286772;20;2805551;-51
2022/04/29 02:59:51;;;;;;;;;19.50;16.50;;;;;8.67;78.27;100454.63;6284912;20;2825257;-51
2022/04/29 03:02:20;;;;;;;;;18.33;15.33;;;;;8.61;79.16;100454.00;6284351;20;3541879;-51
2022/04/29 03:04:50;;;;;;;;;17.00;14.00;;;;;8.79;79.39;100464.84;6342168;20;2810670;-53
2022/04/29 03:07:19;;;;;;;;;16.67;16.67;;;;;8.97;77.43;100459.63;6285325;20;3548153;-50
2022/04/29 03:09:48;;;;;;;;;18.00;18.00;;;;;8.85;78.19;100458.34;6319230;20;2805478;-48
2022/04/29 03:12:16;;;;;;;;;19.00;16.00;;;;;8.91;77.38;100455.41;6283373;20;2820056;-51
2022/04/29 03:14:44;;;;;;;;;14.00;14.00;;;;;8.75;78.44;100459.66;6282721;20;2801319;-52
2022/04/29 03:19:59;;;;;;;;;21.00;19.00;;;;;8.93;78.14;100469.59;6283412;20;2829591;-54
2022/04/29 03:22:28;;;;;;;;;18.33;18.33;;;;;8.81;77.99;100458.53;6284770;20;3552772;-52
2022/04/29 03:24:56;;;;;;;;;16.00;14.00;;;;;8.78;78.54;100464.88;6319204;20;2819051;-52
2022/04/29 03:27:24;;;;;;;;;14.00;14.00;;;;;8.68;78.16;100459.03;6285400;20;3531616;-51
2022/04/29 03:29:52;;;;;;;;;17.00;17.00;;;;;8.51;80.56;100470.44;6318696;20;2500312;-50
2022/04/29 03:32:21;;;;;;;;;19.33;16.00;;;;;8.50;79.66;100466.00;6284196;20;3556482;-48
2022/04/29 03:34:49;;;;;;;;;18.00;18.00;;;;;8.45;80.06;100473.38;6282676;20;2708003;-50
2022/04/29 03:37:17;;;;;;;;;19.67;15.67;;;;;8.73;78.08;100469.56;6283953;20;3540863;-51
2022/04/29 03:39:45;;;;;;;;;19.00;19.00;;;;;8.67;77.78;100475.19;6318827;20;1976490;-50
2022/04/29 03:42:13;;;;;;;;;19.00;14.00;;;;;8.71;77.76;100471.41;6283004;20;3543011;-54
2022/04/29 03:44:42;;;;;;;;;19.67;14.67;;;;;8.69;78.22;100471.50;6313713;20;3543122;-51
2022/04/29 03:47:10;;;;;;;;;15.00;15.00;;;;;8.67;78.19;100467.16;6317604;20;2796080;-53
2022/04/29 03:49:38;;;;;;;;;14.50;14.50;;;;;8.84;77.57;100469.97;6285834;20;2787783;-49
2022/04/29 03:52:07;;;;;;;;;17.00;13.67;;;;;8.85;77.45;100476.22;6285342;20;3546089;-53
2022/04/29 03:54:36;;;;;;;;;16.67;13.67;;;;;9.01;76.84;100474.63;6315050;20;3538913;-49
2022/04/29 03:57:06;;;;;;;;;16.67;15.67;;;;;8.89;77.09;100473.34;6313310;20;3560694;-50
2022/04/29 03:59:34;;;;;;;;;19.33;17.00;;;;;8.87;77.38;100469.84;6280422;20;3553381;-54
2022/04/29 04:02:05;;;;;;;;;15.00;15.00;;;;;8.97;78.34;100471.19;6315543;20;3522157;-51
2022/04/29 04:04:34;;;;;;;;;17.33;17.33;;;;;8.78;79.71;100472.91;6315677;20;3557574;-50
2022/04/29 04:07:03;;;;;;;;;20.00;19.00;;;;;9.04;78.11;100474.50;6282141;20;3551283;-53
2022/04/29 04:09:32;;;;;;;;;19.33;17.00;;;;;9.24;75.85;100473.63;6281472;20;3557595;-55
2022/04/29 04:12:01;;;;;;;;;23.00;19.00;;;;;9.48;76.01;100473.50;6283368;20;2828355;-52
2022/04/29 04:14:28;;;;;;;;;18.00;16.00;;;;;9.15;78.42;100479.41;6282177;20;2487892;-51
2022/04/29 04:16:58;;;;;;;;;23.67;20.00;;;;;9.08;80.06;100483.28;6279480;20;3565865;-52
2022/04/29 04:19:26;;;;;;;;;19.00;19.00;;;;;9.34;77.35;100488.38;6282336;20;2491934;-49
2022/04/29 04:21:53;;;;;;;;;19.00;17.00;;;;;9.13;79.81;100484.81;6281079;20;2824267;-53
2022/04/29 04:24:22;;;;;;;;;19.33;17.00;;;;;9.60;76.34;100489.03;6283344;20;3546152;-44
2022/04/29 04:26:51;;;;;;;;;19.33;18.67;;;;;9.45;78.27;100486.13;6311498;20;3575229;-47
2022/04/29 04:29:19;;;;;;;;;14.00;14.00;;;;;9.65;76.03;100487.03;6312800;20;3529405;-44
2022/04/29 04:31:47;;;;;;;;;19.50;19.00;;;;;9.74;77.01;100494.69;6309139;20;2491962;-46
2022/04/29 04:37:03;;;;;;;;;20.00;17.50;;;;;10.26;72.84;100502.97;6284524;20;2826377;-45
2022/04/29 04:39:31;;;;;;;;;17.00;17.00;;;;;10.44;71.59;100501.25;6280302;20;3555437;-45
2022/04/29 04:41:59;;;;;;;;;22.00;22.00;;;;;10.36;74.43;100507.94;6277909;20;2502348;-46
2022/04/29 04:44:27;;;;;;;;;15.50;15.00;;;;;10.44;72.03;100513.81;6288620;20;2808583;-44
2022/04/29 04:46:55;;;;;;;;;14.00;14.00;;;;;10.66;71.21;100510.97;6282473;20;2808370;-46
2022/04/29 04:49:22;;;;;;;;;16.00;15.00;;;;;11.76;68.67;100515.22;6282942;20;2814857;-46
2022/04/29 04:51:51;;;;;;;;;19.33;17.33;;;;;13.32;61.79;100522.66;6283131;20;3560739;-46
2022/04/29 04:54:27;;;;;;;;;16.50;15.50;;;;;14.64;60.13;100530.69;6280552;20;2491974;-46
2022/04/29 04:56:56;;;;;;;;;20.67;16.33;;;;;14.60;58.67;100531.81;6282866;20;3567011;-45
2022/04/29 04:59:25;;;;;;;;;19.67;14.00;;;;;14.67;57.85;100538.56;6277187;20;3549326;-44
2022/04/29 05:02:05;;;;;;;;;16.67;14.67;;;;;14.68;56.36;100531.34;6280098;20;2814929;-46
2022/04/29 05:04:34;;;;;;;;;14.00;12.33;;;;;14.83;56.32;100534.88;6313710;20;3535791;-45
2022/04/29 05:07:03;;;;;;;;;12.67;12.67;;;;;16.30;53.99;100538.31;6279723;20;3531570;-44
2022/04/29 05:09:32;;;;;;;;;21.00;19.50;;;;;16.21;52.52;100541.69;6275491;20;2823268;-44
2022/04/29 05:12:00;;;;;;;;;15.00;14.00;;;;;16.15;52.29;100539.41;6279862;20;2491958;-45
2022/04/29 05:14:35;;;;;;;;;21.00;19.00;;;;;18.30;47.92;100550.38;6279248;20;2822186;-44
2022/04/29 05:17:03;;;;;;;;;14.00;13.00;;;;;20.31;42.22;100549.84;6283485;20;2802359;-47
2022/04/29 05:19:32;;;;;;;;;14.33;12.33;;;;;17.17;47.45;100541.00;6280609;20;2791019;-45
2022/04/29 05:22:01;;;;;;;;;12.00;11.67;;;;;18.23;45.68;100541.00;6313102;20;2790971;-47
2022/04/29 05:24:30;;;;;;;;;11.33;11.33;;;;;17.17;48.53;100546.44;6312231;20;3530459;-45
2022/04/29 05:26:58;;;;;;;;;12.67;12.00;;;;;16.40;50.20;100536.69;6281562;20;3535635;-46
2022/04/29 05:29:26;;;;;;;;;11.00;10.50;;;;;16.37;50.67;100541.44;6283409;20;2799320;-44
2022/04/29 05:31:56;;;;;;;;;12.67;12.67;;;;;15.49;53.25;100535.88;6282381;20;3523430;-59
2022/04/29 05:34:25;;;;;;;;;14.67;13.00;;;;;16.39;51.91;100537.66;6312181;20;2795170;-59
2022/04/29 05:36:53;;;;;;;;;11.00;11.00;;;;;17.72;48.40;100537.66;6312233;20;2786754;-59
2022/04/29 05:42:14;;;;;;;;;12.00;12.00;;;;;17.84;49.07;100541.28;6281203;20;3510646;-59
2022/04/29 05:44:44;;;;;;;;;11.50;11.50;;;;;16.50;52.51;100538.72;6316599;20;2789933;-59
2022/04/29 05:47:13;;;;;;;;;10.00;9.67;;;;;17.22;51.31;100534.28;6281630;20;3497365;-59
2022/04/29 05:49:42;;;;;;;;;12.00;12.00;;;;;16.40;53.83;100541.22;6310555;20;3531541;-59
2022/04/29 05:52:11;;;;;;;;;12.00;12.00;;;;;15.54;54.48;100533.72;6311962;20;2802424;-58
2022/04/29 05:54:40;;;;;;;;;10.33;9.33;;;;;15.51;52.85;100537.50;6312834;20;3485666;-59
2022/04/29 05:57:12;;;;;;;;;13.80;10.40;;;;;15.40;54.02;100539.19;6336448;20;2786727;-59
2022/04/29 05:59:41;;;;;;;;;11.00;10.00;;;;;16.08;51.19;100541.69;6281169;20;2785838;-59
2022/04/29 06:02:12;;;;;;;;;10.60;10.00;;;;;16.05;50.38;100541.03;6335916;20;2791020;-59
2022/04/29 06:04:40;;;;;;;;;11.33;11.00;;;;;16.76;49.31;100543.09;6279586;20;2789896;-60
2022/04/29 06:07:09;;;;;;;;;11.67;11.67;;;;;16.00;51.33;100536.81;6311719;20;3529411;-59
2022/04/29 06:09:38;;;;;;;;;11.20;9.20;;;;;16.16;50.92;100539.28;6335007;20;2785687;-59
2022/04/29 06:12:08;;;;;;;;;10.00;10.00;;;;;16.04;51.42;100540.19;6282512;20;2779447;-59
2022/04/29 06:14:36;;;;;;;;;14.00;12.00;;;;;16.13;52.24;100542.22;6283284;20;2798195;-46
2022/04/29 06:17:05;;;;;;;;;13.67;10.33;;;;;15.96;51.87;100545.28;6281197;20;3517966;-47
2022/04/29 06:19:33;;;;;;;;;12.00;10.50;;;;;16.54;51.32;100548.38;6313561;20;2786713;-47
2022/04/29 06:22:02;;;;;;;;;10.00;10.00;;;;;16.53;51.96;100552.03;6278627;20;2792296;-50
2022/04/29 06:24:30;;;;;;;;;13.00;9.00;;;;;15.99;52.55;100559.47;6321259;20;2776287;-44
2022/04/29 06:27:17;;;;;;;;;10.50;10.50;;;;;16.00;52.74;100555.75;6290594;20;2785675;-47
2022/04/29 06:29:46;;;;;;;;;6.75;4.00;;;;;16.98;50.88;100555.09;6307134;20;1801498;-44
2022/04/29 06:32:14;;;;;;;;;12.00;10.33;;;;;16.98;49.75;100561.41;6321028;20;2787125;-45
2022/04/29 06:34:43;;;;;;;;;11.67;11.67;;;;;17.31;49.07;100555.28;6319771;20;2790007;-45
2022/04/29 06:37:11;;;;;;;;;11.00;11.00;;;;;18.44;47.76;100571.91;6319899;20;2792212;-45
2022/04/29 06:39:40;;;;;;;;;12.67;12.67;;;;;23.36;37.24;100578.41;6318232;20;3536943;-46
2022/04/29 06:42:09;;;;;;;;;11.00;11.00;;;;;25.70;31.72;100587.53;6318866;20;3517932;-47
2022/04/29 06:44:39;;;;;;;;;10.00;10.00;;;;;27.24;29.47;100597.59;6317782;20;3506627;-47
2022/04/29 06:47:08;;;;;;;;;10.20;10.20;;;;;28.67;27.07;100604.22;6346764;20;2790899;-52
2022/04/29 06:49:37;;;;;;;;;8.33;7.00;;;;;27.33;27.22;100596.50;6288089;20;2748312;-50
2022/04/29 06:52:06;;;;;;;;;8.33;8.33;;;;;27.81;26.81;100604.69;6322877;20;2750321;-49
2022/04/29 06:54:36;;;;;;;;;9.60;8.40;;;;;27.29;27.13;100598.75;6346661;20;2757580;-47
2022/04/29 06:57:09;;;;;;;;;5.20;5.20;;;;;27.82;26.10;100600.88;6317222;20;2742082;-46
2022/04/29 06:59:38;;;;;;;;;7.60;6.80;;;;;27.58;26.86;100594.44;6314598;20;2734615;-46
2022/04/29 07:02:08;;;;;;;;;8.80;8.80;;;;;27.10;27.70;100593.69;6343113;20;2743028;-46
2022/04/29 07:04:38;;;;;;;;;12.80;10.00;;;;;26.18;28.42;100587.72;6313845;20;2792980;-50
2022/04/29 07:07:11;;;;;;;;;8.00;8.00;;;;;24.14;31.90;100591.44;6294148;20;2749295;-48
2022/04/29 07:09:39;;;;;;;;;8.00;8.00;;;;;23.60;33.62;100585.16;6320638;20;2754422;-48
2022/04/29 07:12:25;;;;;;;;;7.67;7.67;;;;;23.14;34.22;100585.16;6325178;20;2748287;-45
2022/04/29 07:14:55;;;;;;;;;9.20;8.20;;;;;22.18;35.22;100573.56;6345474;20;2744041;-47
2022/04/29 07:17:24;;;;;;;;;6.00;6.00;;;;;20.46;35.55;100574.88;6298555;20;2740869;-48
2022/04/29 07:19:53;;;;;;;;;11.00;9.00;;;;;19.80;39.08;100575.19;6342842;20;2763795;-49
2022/04/29 07:22:30;;;;;;;;;9.00;8.00;;;;;20.46;37.07;100575.75;6289580;20;2757664;-47
2022/04/29 07:24:59;;;;;;;;;6.67;6.67;;;;;20.49;37.36;100575.47;6318929;20;2739925;-48
2022/04/29 07:27:29;;;;;;;;;7.40;7.40;;;;;19.03;38.81;100573.47;6346251;20;2737752;-48
2022/04/29 07:30:02;;;;;;;;;8.00;6.67;;;;;19.52;39.19;100570.22;6320237;20;2735825;-50
2022/04/29 07:32:32;;;;;;;;;8.00;8.00;;;;;18.33;38.89;100567.31;6343274;20;2735729;-49
2022/04/29 07:43:27;;;;;;;;;9.40;7.80;;;;;19.33;40.62;100563.75;6312625;20;2757570;-50
2022/04/29 07:45:58;;;;;;;;;9.80;8.00;;;;;19.12;39.57;100571.88;6311734;20;2759667;-48
2022/04/29 07:48:29;;;;;;;;;10.40;10.00;;;;;19.37;39.99;100568.78;6315180;20;2789941;-47
2022/04/29 07:50:58;;;;;;;;;8.00;8.00;;;;;18.67;39.13;100566.44;6286965;20;2752389;-48
2022/04/29 07:53:27;;;;;;;;;7.80;6.40;;;;;19.37;37.67;100574.25;6315429;20;2742043;-54
2022/04/29 07:55:57;;;;;;;;;9.00;9.00;;;;;18.49;40.50;100569.66;6346096;20;2744031;-53
2022/04/29 07:58:24;;;;;;;;;6.00;6.00;;;;;18.73;39.47;100564.09;6322466;20;2750298;-52
2022/04/29 08:00:55;;;;;;;;;7.80;7.80;;;;;19.27;39.33;100562.38;6312569;20;2745063;-51
2022/04/29 08:03:39;;;;;;;;;6.20;6.20;;;;;19.28;38.97;100572.31;6344862;20;2740952;-56
2022/04/29 08:06:08;;;;;;;;;7.00;7.00;;;;;19.38;39.79;100556.91;6286928;20;2746240;-53
2022/04/29 08:08:39;;;;;;;;;8.00;8.00;;;;;19.11;39.12;100557.34;6296819;20;2742044;-49
2022/04/29 08:11:08;;;;;;;;;13.33;8.00;;;;;18.92;41.03;100562.63;6286415;20;2775303;-49
2022/04/29 08:13:37;;;;;;;;;11.00;9.67;;;;;19.79;41.11;100560.72;6318027;20;2786210;-50
2022/04/29 08:16:32;;;;;;;;;7.86;6.71;;;;;19.44;39.61;100550.09;6361349;20;3456486;-48
2022/04/29 08:19:02;;;;;;;;;7.40;6.80;;;;;19.89;39.78;100561.63;6343540;20;2735828;-48
2022/04/29 08:21:31;;;;;;;;;6.80;6.80;;;;;19.89;39.54;100556.19;6344232;20;2737759;-51
2022/04/29 08:24:02;;;;;;;;;8.33;8.00;;;;;20.05;39.77;100557.59;6314849;20;3477411;-52
2022/04/29 08:26:31;;;;;;;;;10.00;10.00;;;;;20.13;39.07;100557.78;6315664;20;3515172;-49
2022/04/29 08:29:00;;;;;;;;;9.40;8.20;;;;;20.20;38.85;100553.53;6343989;20;2770143;-53
2022/04/29 08:31:29;;;;;;;;;8.67;8.67;;;;;20.43;39.61;100564.25;6286328;20;2743432;-51
2022/04/29 08:34:00;;;;;;;;;10.40;9.40;;;;;20.35;40.24;100557.63;6344530;20;2788832;-47
2022/04/29 08:36:30;;;;;;;;;10.00;8.60;;;;;20.85;38.98;100547.75;6309580;20;2761703;-49
2022/04/29 08:39:00;;;;;;;;;7.20;6.80;;;;;18.83;39.71;100547.91;6310719;20;2740863;-52
2022/04/29 08:41:30;;;;;;;;;5.60;5.60;;;;;19.59;39.98;100545.16;6310277;20;2741946;-57
2022/04/29 08:44:00;;;;;;;;;9.00;9.00;;;;;18.97;40.68;100544.91;6288105;20;2746182;-55
2022/04/29 08:46:31;;;;;;;;;6.60;6.60;;;;;20.02;41.82;100546.97;6336359;20;2747162;-49
2022/04/29 08:49:02;;;;;;;;;9.33;9.00;;;;;19.85;40.16;100546.56;6314682;20;2756541;-51
2022/04/29 08:51:34;;;;;;;;;9.60;9.60;;;;;21.12;39.85;100547.13;6341991;20;2777329;-52
2022/04/29 08:54:04;;;;;;;;;11.33;10.67;;;;;21.09;39.06;100542.81;6288480;20;2792045;-54
2022/04/29 08:59:26;;;;;;;;;9.80;8.40;;;;;20.32;40.48;100538.78;6336695;20;2752377;-50
2022/04/29 09:01:56;;;;;;;;;10.67;10.33;;;;;20.39;40.11;100541.84;6283437;20;3515857;-54
2022/04/29 09:04:25;;;;;;;;;7.33;7.33;;;;;20.23;38.34;100542.34;6319554;20;2741976;-51
2022/04/29 09:06:53;;;;;;;;;9.00;9.00;;;;;19.80;40.40;100529.75;6313717;20;2740866;-49
2022/04/29 09:09:22;;;;;;;;;10.67;9.00;;;;;20.43;37.98;100524.19;6316359;20;2775342;-52
2022/04/29 09:12:16;;;;;;;;;10.00;10.00;;;;;20.68;38.22;100528.34;6314988;20;3515888;-53
2022/04/29 09:14:45;;;;;;;;;8.00;8.00;;;;;20.48;40.00;100529.22;6310293;20;2748301;-54
2022/04/29 09:17:30;;;;;;;;;9.80;8.20;;;;;20.09;36.38;100509.94;6344109;20;2765896;-49
2022/04/29 09:19:59;;;;;;;;;7.80;6.60;;;;;19.88;34.50;100519.03;6313016;20;2738780;-51
2022/04/29 09:22:32;;;;;;;;;8.67;8.00;;;;;20.23;34.52;100509.59;6314963;20;2749328;-51
2022/04/29 09:25:04;;;;;;;;;4.40;3.00;;;;;20.09;34.09;100518.13;6342056;20;2744019;-54
2022/04/29 09:28:01;;;;;;;;;5.60;5.60;;;;;19.72;35.31;100505.00;6308076;20;2746111;-49
2022/04/29 09:30:39;;;;;;;;;8.00;8.00;;;;;19.99;35.49;100522.69;6338764;20;2738821;-49
2022/04/29 09:33:21;;;;;;;;;12.33;8.67;;;;;20.46;34.09;100512.13;6315424;20;2773307;-47
2022/04/29 09:35:51;;;;;;;;;8.67;7.33;;;;;20.63;31.64;100511.50;6322299;20;2750268;-49
2022/04/29 09:41:08;;;;;;;;;8.00;3.67;;;;;19.97;33.60;100506.47;6318014;20;2754556;-53
2022/04/29 09:43:42;;;;;;;;;7.00;7.00;;;;;20.96;34.61;100513.03;6342381;20;2748196;-56
2022/04/29 09:46:32;;;;;;;;;10.60;9.80;;;;;21.07;32.89;100503.84;6341751;20;2795139;-54
2022/04/29 09:49:07;;;;;;;;;8.20;7.40;;;;;21.05;34.73;100505.84;6312178;20;2747240;-55
2022/04/29 09:51:51;;;;;;;;;13.60;7.20;;;;;21.81;31.31;100503.28;6304891;20;2778429;-52
2022/04/29 09:54:37;;;;;;;;;7.60;7.00;;;;;21.44;30.95;100505.91;6313356;20;2722211;-55
2022/04/29 09:57:27;;;;;;;;;7.40;7.00;;;;;21.88;32.34;100514.47;6344235;20;2749369;-53
2022/04/29 10:00:00;;;;;;;;;6.20;6.00;;;;;21.12;30.67;100504.28;6313078;20;2738829;-55
2022/04/29 10:02:29;;;;;;;;;8.00;8.00;;;;;;;;6317481;20;2741923;-54
2022/04/29 10:04:58;;;;;;;;;7.67;6.33;;;;;21.13;31.08;100496.94;6324811;20;2740901;-51
2022/04/29 10:07:29;;;;;;;;;8.00;7.40;;;;;20.95;30.63;100510.44;6348927;20;2748262;-54
2022/04/29 10:09:59;;;;;;;;;6.00;6.00;;;;;20.90;32.28;100504.53;6313516;20;2738899;-52
2022/04/29 10:12:29;;;;;;;;;9.33;9.00;;;;;21.03;30.92;100500.53;6328551;20;2755521;-54
2022/04/29 10:15:05;;;;;;;;;8.00;8.00;;;;;21.65;28.83;100501.13;6321295;20;2750291;-52
2022/04/29 10:23:13;;;;;;;;;5.80;5.80;;;;;21.58;30.49;100491.78;6343409;20;2738376;-52
2022/04/29 10:25:47;;;;;;;;;6.80;6.80;;;;;21.29;29.72;100485.47;6345808;20;2741926;-55
2022/04/29 10:28:21;;;;;;;;;7.00;7.00;;;;;22.03;30.23;100487.53;6344739;20;2742063;-51
2022/04/29 10:31:06;;;;;;;;;8.00;8.00;;;;;21.73;30.10;100481.28;6315099;20;3466886;-52
2022/04/29 10:33:36;;;;;;;;;15.67;15.67;;;;;21.20;30.02;100481.72;6321667;20;3552704;-51
2022/04/29 10:36:16;;;;;;;;;7.40;7.40;;;;;21.40;31.90;100469.78;6345056;20;2756617;-50
2022/04/29 10:38:46;;;;;;;;;12.33;12.33;;;;;21.64;31.87;100482.13;6289120;20;2803371;-52
2022/04/29 10:41:24;;;;;;;;;9.00;9.00;;;;;20.88;32.22;100460.13;6320654;20;2741944;-50
2022/04/29 10:43:53;;;;;;;;;8.33;6.33;;;;;21.60;30.50;100464.31;6322676;20;2739823;-51
2022/04/29 10:46:31;;;;;;;;;8.40;8.40;;;;;21.22;31.68;100458.72;6347794;20;2749346;-53
2022/04/29 10:49:23;;;;;;;;;8.20;7.20;;;;;21.18;32.53;100457.28;6312031;20;2750240;-52
2022/04/29 10:51:59;;;;;;;;;23.33;22.00;;;;;21.07;33.20;100451.97;6289914;20;3589808;-50
2022/04/29 10:54:33;;;;;;;;;14.33;11.33;;;;;21.40;32.51;100458.00;6287759;20;3524209;-52
2022/04/29 10:57:08;;;;;;;;;13.33;13.00;;;;;20.36;31.90;100452.09;6320082;20;3513838;-51
2022/04/29 11:00:00;;;;;;;;;9.60;8.60;;;;;20.61;32.38;100451.59;6342729;20;2765907;-50
2022/04/29 11:02:34;;;;;;;;;8.00;8.00;;;;;21.68;31.01;100450.78;6315649;20;2751343;-49
2022/04/29 11:05:07;;;;;;;;;10.00;9.00;;;;;21.79;30.55;100449.75;6314291;20;2775254;-47
2022/04/29 11:07:48;;;;;;;;;8.20;7.00;;;;;20.95;33.08;100445.75;6316582;20;2731585;-51
2022/04/29 11:10:24;;;;;;;;;12.00;10.33;;;;;21.34;31.83;100455.84;6321921;20;2791930;-52
2022/04/29 11:13:12;;;;;;;;;8.40;6.80;;;;;21.14;32.51;100447.63;6346205;20;2757548;-54
2022/04/29 11:15:46;;;;;;;;;7.40;7.40;;;;;20.76;32.61;100446.63;6312848;20;2731514;-55
2022/04/29 11:18:26;;;;;;;;;9.00;9.00;;;;;20.85;33.86;100446.75;6329847;20;2751324;-50
2022/04/29 11:24:40;;;;;;;;;77.00;65.00;;;;;20.37;33.90;100438.31;6317267;20;1920053;-53
2022/04/29 11:26:51;;;;;;;;;53.00;41.67;;;;;20.80;33.65;100431.69;6289195;20;3620040;-50
2022/04/29 11:29:20;;;;;;;;;24.67;21.67;;;;;20.57;35.36;100435.69;6319920;20;3581476;-52
2022/04/29 11:31:49;;;;;;;;;8.00;8.00;;;;;20.01;35.01;100431.59;6297530;20;2739824;-53
2022/04/29 11:34:18;;;;;;;;;54.25;44.25;;;;;19.70;36.57;100431.59;6318489;20;3610928;-49
2022/04/29 11:36:56;;;;;;;;;11.50;10.50;;;;;19.43;35.18;100431.22;6319460;20;2784779;-56
2022/04/29 11:39:26;;;;;;;;;6.80;6.60;;;;;19.52;35.48;100422.25;6345345;20;2737869;-49
2022/04/29 11:41:58;;;;;;;;;24.33;21.67;;;;;20.89;33.45;100429.97;6318727;20;3592943;-51
2022/04/29 11:44:38;;;;;;;;;21.00;19.00;;;;;20.99;34.39;100425.38;6288049;20;2833682;-53
2022/04/29 11:47:09;;;;;;;;;10.67;10.67;;;;;20.64;34.63;100416.88;6287285;20;3507607;-52
2022/04/29 11:49:38;;;;;;;;;49.67;38.33;;;;;20.91;34.84;100417.03;6320701;20;3622122;-50